Motto Farm, Australia

12:53 AM AEDT on December 08, 2016 (GMT +1100)
Cluey Solutions, Harriet Cl | | Change Station

Elev 62 ft 32.75 °S, 151.76 °E | Updated 1 second ago

Clear
Clear
66.0 °F
Feels Like 66.0 °F
N
0.0
Wind Variable Wind from East
Gusts 1.0 mph

Today
High -- | Low -- °F
--% Chance of Precip.
Yesterday
High -- | Low -- °F
Precip. -- in
Pressure 29.92 in
Visibility 6.2 miles
Clouds
Dew Point 64 °F
Humidity 92%
Rainfall in
Snow Depth Not available.
5:37 AM 7:52 PM
First Quarter, 52% visible
METAR YWLM 071330Z AUTO 04008KT 9999 // NCD 20/17 Q1013
Pressure 29.92 in
Visibility 6.2 miles
Clouds
Dew Point 64 °F
Humidity 92%
Rainfall in
Snow Depth Not available.
5:37 AM 7:52 PM
First Quarter, 52% visible
METAR YWLM 071330Z AUTO 04008KT 9999 // NCD 20/17 Q1013

10-Day Weather Forecast

×

Almanac

Astronomy

Dec. 08, 2016 Rise Set
Actual Time
Civil Twilight
Nautical Twilight
Astronomical Twilight
Moon
Length of Visible Light
Length of Day
Tomorrow will be .
, % of the Moon is Illuminated

Today's Extremes

Country Highs Country Lows

Community

WunderPhotos

Upload Photos

1,956,114 photos uploaded!

WunderBlog® & News

Nearby

Air Quality

  Air Quality AQ Index Pollutant
Not available.

Snow Depth

Station Depth Elevation

Earthquake Activity

City Distance Mag. Time & Date
Minimum magnitude displayed is 2.5.

Coastal Water Temperatures

Place Temperature

Stations

Nearby Weather Stations

Station Location Temp. Windchill Dew Point Humidity Wind Precip. Elev Updated Type